Time;durP1;ratioP1;P1;durP2;ratioP2;P2;SDS_P1;SDS_P2;PMS_P1;PMS_P2;Temp;Humidity;BMP_temperature;BMP_pressure;BME280_temperature;BME280_humidity;BME280_pressure;Samples;Min_cycle;Max_cycle;Signal;HPM_P1;HPM_P2
2022/06/24 00:05:18;;;;;;;1403.63;999.90;;;23.60;56.30;;;;;;2615303;54;20400;-79
2022/06/24 00:11:14;;;;;;;1657.27;999.90;;;23.60;61.30;;;;;;2615733;54;20227;-77
2022/06/24 00:17:07;;;;;;;1421.57;999.90;;;23.50;63.70;;;;;;2615535;54;20916;-78
2022/06/24 00:22:54;;;;;;;1424.97;999.90;;;23.60;67.60;;;;;;2616483;54;20391;-78
2022/06/24 00:28:42;;;;;;;1421.90;999.90;;;23.80;60.80;;;;;;2616469;54;20158;-77
2022/06/24 00:34:30;;;;;;;1389.07;999.90;;;23.80;59.70;;;;;;2616219;54;20178;-77
2022/06/24 00:40:18;;;;;;;1696.90;999.90;;;23.60;71.00;;;;;;2617871;54;20538;-78
2022/06/24 00:46:24;;;;;;;1307.03;999.90;;;23.70;70.10;;;;;;2617657;54;20122;-77
2022/06/24 01:02:35;;;;;;;1398.13;999.90;;;23.80;24.50;;;;;;2619513;54;20499;-82
2022/06/24 01:08:23;;;;;;;1568.10;999.90;;;23.90;31.00;;;;;;2620336;54;20395;-81
2022/06/24 01:14:12;;;;;;;1675.53;999.90;;;23.50;65.80;;;;;;2617749;54;20153;-81
2022/06/24 01:19:59;;;;;;;1763.17;999.90;;;23.30;91.40;;;;;;2616438;54;21018;-82
2022/06/24 01:25:47;;;;;;;1999.90;999.90;;;23.20;99.90;;;;;;2615575;54;21173;-82
2022/06/24 01:31:35;;;;;;;1999.90;999.90;;;22.80;99.90;;;;;;2616242;54;20384;-82
2022/06/24 01:37:23;;;;;;;1999.90;999.90;;;22.50;99.90;;;;;;2617666;54;20519;-81
2022/06/24 01:43:11;;;;;;;1999.90;999.90;;;22.40;99.90;;;;;;2616740;54;20395;-81
2022/06/24 01:48:59;;;;;;;1999.90;999.90;;;22.20;99.90;;;;;;2617589;54;20155;-80
2022/06/24 01:55:00;;;;;;;1999.90;999.90;;;21.90;99.90;;;;;;2615517;54;20146;-82
2022/06/24 02:00:47;;;;;;;1904.67;999.90;;;21.70;99.90;;;;;;2616103;46;20161;-81
2022/06/24 02:06:35;;;;;;;1422.60;999.90;;;21.70;99.90;;;;;;2616417;54;20239;-81
2022/06/24 02:18:29;;;;;;;1438.37;999.90;;;21.70;99.90;;;;;;2615847;54;20385;-82
2022/06/24 02:24:16;;;;;;;1307.50;991.73;;;21.80;99.90;;;;;;2614501;54;20431;-81
2022/06/24 02:30:04;;;;;;;964.97;800.63;;;21.70;99.90;;;;;;2615953;54;20134;-81
2022/06/24 02:35:52;;;;;;;1333.27;999.90;;;21.60;99.90;;;;;;2616978;54;20419;-81
2022/06/24 02:41:40;;;;;;;905.67;822.20;;;21.60;99.90;;;;;;2617088;54;20126;-81
2022/06/24 02:47:27;;;;;;;555.13;436.93;;;21.50;99.90;;;;;;2615312;54;20150;-77
2022/06/24 02:56:37;;;;;;;833.03;741.07;;;21.30;99.90;;;;;;2616288;54;20423;-80
2022/06/24 03:02:25;;;;;;;1031.23;876.97;;;21.30;99.90;;;;;;2616937;54;20146;-81
2022/06/24 03:08:15;;;;;;;488.70;353.10;;;21.30;99.90;;;;;;2616967;54;20134;-82
2022/06/24 03:14:03;;;;;;;885.43;805.10;;;21.30;99.90;;;;;;2616857;54;20407;-83
2022/06/24 03:19:51;;;;;;;82.90;77.10;;;21.40;99.90;;;;;;2617226;54;20245;-81
2022/06/24 03:25:39;;;;;;;53.87;49.80;;;21.40;99.90;;;;;;2616710;39;20526;-80
2022/06/24 03:31:26;;;;;;;86.93;79.73;;;21.20;99.90;;;;;;2616037;39;20589;-81
2022/06/24 03:37:13;;;;;;;480.80;430.20;;;21.40;99.90;;;;;;2614811;54;20151;-81
2022/06/24 03:43:00;;;;;;;120.50;110.03;;;21.20;99.90;;;;;;2614749;54;20227;-82
2022/06/24 03:48:48;;;;;;;24.33;21.27;;;21.10;99.90;;;;;;2615394;54;20124;-80
2022/06/24 03:54:52;;;;;;;49.57;45.43;;;21.20;99.90;;;;;;2617266;47;20131;-81
2022/06/24 04:00:40;;;;;;;96.77;88.10;;;21.20;99.90;;;;;;2615210;54;20170;-82
2022/06/24 04:06:27;;;;;;;100.33;90.40;;;21.30;99.90;;;;;;2615588;54;20238;-82
2022/06/24 04:09:30;;;;;;;82.83;74.50;;;21.10;99.90;;;;;;2615584;54;20433;-82
2022/06/24 04:11:56;;;;;;;120.77;109.07;;;20.90;99.90;;;;;;2615471;54;20241;-83
2022/06/24 04:17:45;;;;;;;108.20;97.40;;;20.90;99.90;;;;;;2616195;54;20159;-83
2022/06/24 04:23:32;;;;;;;75.30;68.87;;;20.90;99.90;;;;;;2616049;54;20403;-86
2022/06/24 04:29:19;;;;;;;17.13;15.57;;;20.80;99.90;;;;;;2616912;54;20133;-86
2022/06/24 04:35:08;;;;;;;13.83;12.60;;;20.50;99.90;;;;;;2615630;54;20130;-82
2022/06/24 04:40:56;;;;;;;16.20;12.97;;;20.40;99.90;;;;;;2617336;54;20500;-85
2022/06/24 04:46:44;;;;;;;16.20;12.43;;;20.10;99.90;;;;;;2616165;54;20152;-83
2022/06/24 05:02:45;;;;;;;17.60;14.17;;;19.90;99.90;;;;;;2615878;54;20469;-83
2022/06/24 05:08:32;;;;;;;18.77;16.80;;;19.90;99.90;;;;;;2615555;54;20254;-86
2022/06/24 05:14:20;;;;;;;19.47;17.60;;;19.90;99.90;;;;;;2615194;54;20161;-83
2022/06/24 05:20:08;;;;;;;18.70;16.80;;;19.80;99.90;;;;;;2616056;54;20131;-84
2022/06/24 05:25:55;;;;;;;20.83;18.83;;;19.90;99.90;;;;;;2615754;54;20402;-81
2022/06/24 05:35:06;;;;;;;19.80;17.90;;;20.00;99.90;;;;;;2617035;39;20696;-82
2022/06/24 05:40:53;;;;;;;21.30;19.30;;;19.90;99.90;;;;;;2615900;54;20383;-80
2022/06/24 05:46:40;;;;;;;25.83;21.30;;;19.90;99.90;;;;;;2615539;54;20157;-82
2022/06/24 06:02:48;;;;;;;24.20;21.80;;;19.70;99.90;;;;;;2616682;54;20387;-84
2022/06/24 06:08:36;;;;;;;23.50;21.20;;;19.90;99.90;;;;;;2617029;54;20121;-84
2022/06/24 06:14:23;;;;;;;23.93;21.63;;;19.90;99.90;;;;;;2617425;54;20461;-85
2022/06/24 06:20:11;;;;;;;21.00;19.00;;;20.10;99.90;;;;;;2616395;54;20126;-85
2022/06/24 06:26:00;;;;;;;24.80;21.40;;;20.30;99.90;;;;;;2617008;39;20825;-83
2022/06/24 06:31:50;;;;;;;21.70;19.30;;;20.50;99.90;;;;;;2616475;54;20384;-81
2022/06/24 06:41:00;;;;;;;21.17;19.20;;;20.40;99.90;;;;;;2615626;54;20395;-83
2022/06/24 06:43:27;;;;;;;20.20;18.23;;;20.50;99.90;;;;;;2615974;54;20411;-84
2022/06/24 06:45:53;;;;;;;21.97;19.67;;;20.60;99.90;;;;;;2616296;47;20973;-84
2022/06/24 06:51:41;;;;;;;22.40;20.17;;;20.60;99.90;;;;;;2615875;54;20382;-83
2022/06/24 06:57:28;;;;;;;19.87;17.03;;;20.50;99.90;;;;;;2617089;54;20122;-83
2022/06/24 07:03:15;;;;;;;18.30;16.60;;;20.70;99.90;;;;;;2617728;54;20230;-83
2022/06/24 07:09:03;;;;;;;13.03;11.83;;;20.90;99.90;;;;;;2616118;54;20979;-84
2022/06/24 07:14:50;;;;;;;9.63;8.80;;;21.00;99.90;;;;;;2615313;54;20722;-81
2022/06/24 07:20:38;;;;;;;9.53;8.63;;;21.30;99.90;;;;;;2616828;54;20415;-83
2022/06/24 07:26:25;;;;;;;6.67;6.00;;;21.60;99.90;;;;;;2616685;54;20648;-83
2022/06/24 07:32:13;;;;;;;11.20;6.00;;;21.40;99.90;;;;;;2617390;54;20223;-81
2022/06/24 07:38:01;;;;;;;7.03;5.47;;;21.60;99.90;;;;;;2616861;54;20669;-81
2022/06/24 07:43:49;;;;;;;6.83;4.60;;;21.70;99.90;;;;;;2616624;54;20138;-83
2022/06/24 07:49:37;;;;;;;6.97;5.40;;;21.70;99.90;;;;;;2616538;54;20210;-82
2022/06/24 08:09:22;;;;;;;4.10;3.20;;;19.70;99.90;;;;;;2614767;54;20381;-83
2022/06/24 08:15:09;;;;;;;5.47;3.60;;;19.60;99.90;;;;;;2615182;54;20392;-82
2022/06/24 08:20:56;;;;;;;5.30;3.60;;;19.60;99.90;;;;;;2615555;54;20628;-81
2022/06/24 08:26:43;;;;;;;3.90;3.33;;;19.70;99.90;;;;;;2615736;54;20755;-82
2022/06/24 08:32:30;;;;;;;5.10;4.33;;;19.70;99.90;;;;;;2615954;54;20129;-81
2022/06/24 08:38:18;;;;;;;6.87;4.30;;;19.70;99.90;;;;;;2616070;39;20216;-81
2022/06/24 08:44:06;;;;;;;10.90;4.47;;;19.90;99.90;;;;;;2615701;54;20136;-82
2022/06/24 08:49:54;;;;;;;5.60;4.37;;;20.10;99.90;;;;;;2616523;54;20367;-81
2022/06/24 08:59:02;;;;;;;4.63;4.23;;;20.10;99.90;;;;;;2616072;54;21026;-79
2022/06/24 09:04:50;;;;;;;4.77;3.63;;;19.90;99.90;;;;;;2614886;54;20247;-78
2022/06/24 09:10:39;;;;;;;5.53;5.03;;;19.80;99.90;;;;;;2616391;54;20137;-78
2022/06/24 09:16:26;;;;;;;7.40;6.20;;;19.80;99.90;;;;;;2616468;54;20510;-78
2022/06/24 09:32:28;;;;;;;13.30;11.93;;;19.20;99.90;;;;;;2616603;54;20428;-78
2022/06/24 09:38:15;;;;;;;17.83;13.70;;;19.00;99.90;;;;;;2616242;54;20414;-79
2022/06/24 09:44:02;;;;;;;20.23;14.90;;;19.00;99.90;;;;;;2616571;54;20146;-78
2022/06/24 10:03:24;;;;;;;22.67;16.47;;;18.70;99.90;;;;;;2617163;54;20392;-86
2022/06/24 10:09:12;;;;;;;16.53;11.73;;;19.00;99.90;;;;;;2617575;54;20402;-85
2022/06/24 10:12:15;;;;;;;14.20;11.43;;;19.00;99.90;;;;;;2619303;54;20421;-85
2022/06/24 10:14:41;;;;;;;14.10;11.03;;;19.20;99.90;;;;;;2617405;47;20472;-84
2022/06/24 10:20:29;;;;;;;13.37;11.73;;;19.60;99.90;;;;;;2618722;54;20145;-87
2022/06/24 10:26:25;;;;;;;15.70;10.43;;;20.30;99.90;;;;;;2619747;39;20801;-85
2022/06/24 10:36:03;;;;;;;13.53;8.30;;;22.60;99.90;;;;;;2618319;54;20387;-85
2022/06/24 10:42:14;;;;;;;8.60;7.80;;;22.90;99.90;;;;;;2618513;46;20395;-82
2022/06/24 10:58:32;;;;;;;9.67;8.67;;;23.50;99.90;;;;;;2616553;54;20439;-83
2022/06/24 11:04:25;;;;;;;8.17;7.37;;;22.70;99.90;;;;;;2616621;46;20138;-82
2022/06/24 11:10:27;;;;;;;6.50;5.90;;;23.60;99.90;;;;;;2615575;54;20402;-83
2022/06/24 11:19:41;;;;;;;7.00;6.37;;;24.10;99.90;;;;;;2615531;54;20408;-82
2022/06/24 11:25:29;;;;;;;6.60;6.00;;;24.60;99.90;;;;;;2614996;54;20402;-83
2022/06/24 11:31:30;;;;;;;6.93;6.23;;;25.30;99.90;;;;;;2615729;54;20428;-83
2022/06/24 11:37:24;;;;;;;7.20;6.50;;;25.40;99.90;;;;;;2615328;54;20390;-81
2022/06/24 11:46:53;;;;;;;7.37;6.70;;;26.50;74.20;;;;;;2614856;54;20403;-81
2022/06/24 11:52:49;;;;;;;8.93;7.03;;;25.70;76.40;;;;;;2615635;54;20143;-82
2022/06/24 12:01:57;;;;;;;8.97;8.27;;;25.90;66.90;;;;;;2615065;54;20418;-82
2022/06/24 12:07:46;;;;;;;6.90;6.30;;;26.80;49.30;;;;;;2615773;54;20392;-82
2022/06/24 12:13:34;;;;;;;8.47;7.67;;;27.20;44.40;;;;;;2615557;54;20360;-82
2022/06/24 12:19:22;;;;;;;7.70;7.20;;;28.40;24.30;;;;;;2616872;54;20425;-84
2022/06/24 12:25:11;;;;;;;8.80;8.10;;;29.30;20.20;;;;;;2617540;54;20411;-82
2022/06/24 12:37:32;;;;;;;7.23;6.63;;;27.50;25.20;;;;;;2615312;54;20422;-82
2022/06/24 12:43:19;;;;;;;7.13;6.53;;;27.60;15.90;;;;;;2616103;54;20124;-83
2022/06/24 13:02:47;;;;;;;6.87;6.27;;;26.30;23.10;;;;;;2615990;54;20441;-78
2022/06/24 13:08:35;;;;;;;6.23;5.70;;;25.80;29.50;;;;;;2619135;47;20524;-79
2022/06/24 13:14:23;;;;;;;6.47;5.90;;;26.20;31.70;;;;;;2619036;54;20169;-80
2022/06/24 13:20:13;;;;;;;5.90;5.50;;;27.80;17.70;;;;;;2619315;54;20385;-78
2022/06/24 13:26:01;;;;;;;5.93;5.43;;;27.70;16.90;;;;;;2618372;54;20433;-77
2022/06/24 13:31:48;;;;;;;5.60;5.20;;;28.50;12.30;;;;;;2618117;54;20404;-79
2022/06/24 13:37:36;;;;;;;5.60;5.30;;;28.20;9.90;;;;;;2616877;54;20137;-78
2022/06/24 13:43:24;;;;;;;6.53;6.13;;;29.50;5.30;;;;;;2617312;54;20149;-78
2022/06/24 13:49:13;;;;;;;6.90;6.40;;;29.30;5.00;;;;;;2617809;54;20401;-80
2022/06/24 13:55:01;;;;;;;6.73;6.20;;;27.70;8.50;;;;;;2617619;54;20974;-79
2022/06/24 14:04:11;;;;;;;6.60;6.10;;;28.40;8.40;;;;;;2617214;54;20531;-79
2022/06/24 14:09:59;;;;;;;8.13;7.53;;;28.20;7.90;;;;;;2616908;54;20199;-79
2022/06/24 14:15:47;;;;;;;6.70;6.30;;;27.20;11.80;;;;;;2617008;54;20130;-77
2022/06/24 14:21:35;;;;;;;7.13;6.53;;;26.80;13.70;;;;;;2617533;54;20134;-78
2022/06/24 14:27:23;;;;;;;7.73;7.23;;;26.60;22.10;;;;;;2616973;54;20418;-78
2022/06/24 14:33:11;;;;;;;8.47;7.77;;;26.30;23.00;;;;;;2616648;54;20615;-77
2022/06/24 14:45:04;;;;;;;9.73;8.93;;;27.20;15.60;;;;;;2616305;39;20922;-79
2022/06/24 14:54:13;;;;;;;8.77;8.00;;;26.80;20.00;;;;;;2616203;54;20434;-79
2022/06/24 15:10:15;;;;;;;10.30;9.40;;;26.00;22.40;;;;;;2616245;54;20411;-78
2022/06/24 15:16:03;;;;;;;9.50;8.60;;;26.10;22.30;;;;;;2615355;54;20118;-78
2022/06/24 15:21:50;;;;;;;8.60;8.10;;;26.30;20.90;;;;;;2615787;54;20123;-77
2022/06/24 15:27:38;;;;;;;9.33;8.53;;;26.60;20.00;;;;;;2616102;54;20158;-78
2022/06/24 15:33:25;;;;;;;9.40;8.80;;;26.70;19.40;;;;;;2614800;54;20568;-79
2022/06/24 15:39:13;;;;;;;10.80;10.00;;;26.60;19.40;;;;;;2615474;39;20265;-78
2022/06/24 15:45:00;;;;;;;9.33;8.73;;;26.60;21.30;;;;;;2616918;54;20150;-79
2022/06/24 15:50:48;;;;;;;10.67;9.67;;;26.40;20.10;;;;;;2617611;54;20488;-79
2022/06/24 15:56:36;;;;;;;10.73;9.80;;;26.50;19.60;;;;;;2617469;54;20126;-78
2022/06/24 16:02:43;;;;;;;10.90;10.10;;;26.50;15.80;;;;;;2616031;54;20251;-78
2022/06/24 16:08:30;;;;;;;10.80;9.90;;;26.40;17.20;;;;;;2615393;39;20559;-77
2022/06/24 16:11:33;;;;;;;10.33;9.60;;;26.10;21.30;;;;;;2615510;54;20445;-78
2022/06/24 16:13:59;;;;;;;9.23;8.53;;;25.90;21.00;;;;;;2615297;47;20231;-77
2022/06/24 16:19:46;;;;;;;9.93;9.23;;;25.80;20.80;;;;;;2615810;54;20410;-78
2022/06/24 16:31:39;;;;;;;11.30;9.50;;;25.30;26.30;;;;;;2614943;54;20391;-79
2022/06/24 16:37:27;;;;;;;5.93;5.53;;;24.90;30.90;;;;;;2616781;54;20164;-78
2022/06/24 16:43:17;;;;;;;9.50;8.80;;;24.90;28.10;;;;;;2617488;39;20799;-79
2022/06/24 16:49:05;;;;;;;9.43;7.87;;;22.20;99.90;;;;;;2620345;54;20392;-84
2022/06/24 16:54:53;;;;;;;6.70;6.07;;;20.70;99.90;;;;;;2620582;54;20125;-86
2022/06/24 17:10:58;;;;;;;5.10;4.70;;;19.80;99.90;;;;;;2619888;54;20415;-87
2022/06/24 17:16:46;;;;;;;5.97;5.47;;;19.70;99.90;;;;;;2623020;54;20491;-86
2022/06/24 17:22:34;;;;;;;8.60;7.80;;;20.30;99.90;;;;;;2627395;54;20414;-86
2022/06/24 17:28:22;;;;;;;9.17;8.37;;;20.50;99.90;;;;;;2629411;54;20387;-82
2022/06/24 17:34:10;;;;;;;8.27;7.30;;;20.60;99.90;;;;;;2616737;39;20745;-74
2022/06/24 17:39:57;;;;;;;10.03;8.20;;;21.10;99.90;;;;;;2616297;54;20162;-74
2022/06/24 17:45:45;;;;;;;6.03;5.43;;;21.10;99.90;;;;;;2616051;54;20179;-75
2022/06/24 17:51:33;;;;;;;7.83;6.13;;;21.10;99.90;;;;;;2615956;54;20656;-73
2022/06/24 17:57:21;;;;;;;14.87;13.57;;;21.30;99.90;;;;;;2616694;39;20544;-74
2022/06/24 18:03:08;;;;;;;9.20;8.03;;;21.30;99.90;;;;;;2615663;54;20142;-73
2022/06/24 18:08:56;;;;;;;8.43;7.83;;;21.20;99.90;;;;;;2615422;54;20134;-73
2022/06/24 18:14:46;;;;;;;9.57;8.50;;;21.20;99.90;;;;;;2615573;54;20134;-73
2022/06/24 18:20:34;;;;;;;8.60;7.77;;;21.10;99.90;;;;;;2615302;54;20387;-74
2022/06/24 18:26:23;;;;;;;8.30;7.60;;;20.90;99.90;;;;;;2615659;54;20645;-75
2022/06/24 18:32:25;;;;;;;8.00;7.20;;;20.80;99.90;;;;;;2614032;54;20385;-73
2022/06/24 18:38:12;;;;;;;6.90;6.40;;;20.90;99.90;;;;;;2614738;54;20372;-75
2022/06/24 18:43:59;;;;;;;6.13;5.63;;;20.90;99.90;;;;;;2614474;54;20115;-73
2022/06/24 18:49:47;;;;;;;6.90;6.30;;;20.60;99.90;;;;;;2613762;54;20149;-73
2022/06/24 18:55:34;;;;;;;6.20;5.43;;;20.60;99.90;;;;;;2614183;54;20263;-74
2022/06/24 19:01:21;;;;;;;5.20;4.53;;;20.50;99.90;;;;;;2613830;54;20151;-73
2022/06/24 19:07:08;;;;;;;5.83;5.13;;;20.40;99.90;;;;;;2614108;54;20183;-73
2022/06/24 19:12:56;;;;;;;5.60;5.10;;;20.40;99.90;;;;;;2615617;54;20161;-75
2022/06/24 19:24:50;;;;;;;5.80;4.77;;;20.30;99.90;;;;;;2615651;54;20387;-73
2022/06/24 19:34:48;;;;;;;10.93;4.77;;;20.10;99.90;;;;;;2614636;54;20448;-73
2022/06/24 19:40:35;;;;;;;4.93;4.00;;;20.10;99.90;;;;;;2613794;54;20390;-72
2022/06/24 19:46:24;;;;;;;4.97;4.03;;;20.10;99.90;;;;;;2613686;54;20133;-73
2022/06/24 19:52:11;;;;;;;4.23;3.83;;;20.10;99.90;;;;;;2614016;54;20395;-74
2022/06/24 19:57:58;;;;;;;4.27;3.50;;;19.90;99.90;;;;;;2612766;54;20720;-74
2022/06/24 20:09:51;;;;;;;4.80;3.50;;;19.70;99.90;;;;;;2613890;54;20928;-74
2022/06/24 20:15:40;;;;;;;3.93;3.53;;;19.50;99.90;;;;;;2615001;54;20130;-73
2022/06/24 20:21:29;;;;;;;9.37;3.27;;;19.40;99.90;;;;;;2614618;54;20420;-75
2022/06/24 20:27:17;;;;;;;12.83;4.10;;;19.30;99.90;;;;;;2615054;54;20437;-75
2022/06/24 20:33:07;;;;;;;4.70;4.30;;;19.30;99.90;;;;;;2614982;54;20399;-73
2022/06/24 20:42:17;;;;;;;5.10;4.37;;;19.10;99.90;;;;;;2614292;54;20405;-75
2022/06/24 20:48:05;;;;;;;5.50;5.00;;;19.10;99.90;;;;;;2614753;54;20153;-74
2022/06/24 20:53:52;;;;;;;5.47;4.53;;;19.10;99.90;;;;;;2613264;54;20427;-75
2022/06/24 20:59:40;;;;;;;13.47;12.13;;;19.00;99.90;;;;;;2615552;54;20134;-74
2022/06/24 21:05:28;;;;;;;6.57;5.50;;;19.00;99.90;;;;;;2615150;54;20149;-74
2022/06/24 21:11:16;;;;;;;5.70;4.47;;;19.00;99.90;;;;;;2615281;54;20136;-73
2022/06/24 21:17:03;;;;;;;5.90;5.30;;;19.00;99.90;;;;;;2615760;54;20254;-75
2022/06/24 21:22:51;;;;;;;6.43;5.17;;;18.90;99.90;;;;;;2615247;54;20160;-74
2022/06/24 21:28:39;;;;;;;12.27;5.93;;;18.80;99.90;;;;;;2615757;54;20513;-73
2022/06/24 21:34:27;;;;;;;9.23;4.83;;;18.90;99.90;;;;;;2615588;54;20144;-74
2022/06/24 21:40:26;;;;;;;6.00;5.50;;;18.80;99.90;;;;;;2612815;47;20154;-76
2022/06/24 21:46:13;;;;;;;9.53;5.80;;;18.90;99.90;;;;;;2614449;54;20589;-73
2022/06/24 21:52:00;;;;;;;7.73;6.10;;;18.90;99.90;;;;;;2613266;54;20133;-73
2022/06/24 21:57:47;;;;;;;7.00;5.63;;;18.80;99.90;;;;;;2612481;54;20377;-73
2022/06/24 22:03:35;;;;;;;6.23;5.50;;;18.80;99.90;;;;;;2613683;54;20133;-74
2022/06/24 22:09:25;;;;;;;8.70;7.87;;;18.70;99.90;;;;;;2614179;46;20271;-74
2022/06/24 22:15:12;;;;;;;9.00;8.10;;;18.50;99.90;;;;;;2613474;54;20398;-74
2022/06/24 22:21:00;;;;;;;10.67;6.00;;;18.50;99.90;;;;;;2614742;54;20153;-74
2022/06/24 22:26:48;;;;;;;8.70;6.70;;;18.40;99.90;;;;;;2615165;54;20211;-74
2022/06/24 22:32:35;;;;;;;9.27;7.00;;;18.50;99.90;;;;;;2615184;54;20165;-74
2022/06/24 22:48:39;;;;;;;7.83;6.67;;;18.40;99.90;;;;;;2613546;54;21030;-74
2022/06/24 22:54:26;;;;;;;11.33;5.83;;;18.40;99.90;;;;;;2613455;54;20137;-74
2022/06/24 23:00:14;;;;;;;17.00;7.67;;;18.40;99.90;;;;;;2614169;54;21011;-74
2022/06/24 23:06:01;;;;;;;5.57;5.07;;;18.50;99.90;;;;;;2613728;54;20437;-74
2022/06/24 23:11:48;;;;;;;14.13;6.33;;;18.40;99.90;;;;;;2614018;54;20708;-77
2022/06/24 23:17:35;;;;;;;9.17;5.30;;;18.40;99.90;;;;;;2612626;54;20233;-74
2022/06/24 23:23:23;;;;;;;6.30;4.37;;;18.40;99.90;;;;;;2614399;54;20655;-73
2022/06/24 23:29:10;;;;;;;6.23;4.77;;;18.40;99.90;;;;;;2614523;54;20152;-74
2022/06/24 23:34:58;;;;;;;8.00;5.60;;;18.40;99.90;;;;;;2615274;54;20125;-74
2022/06/24 23:41:06;;;;;;;8.60;5.20;;;18.40;99.90;;;;;;2613350;54;20175;-75
2022/06/24 23:46:53;;;;;;;9.90;4.80;;;18.40;99.90;;;;;;2612642;54;20237;-75
2022/06/24 23:52:40;;;;;;;10.10;4.70;;;18.40;99.90;;;;;;2613382;39;20558;-74
2022/06/24 23:58:27;;;;;;;4.57;3.60;;;18.30;99.90;;;;;;2613573;54;20169;-73
